Time;durP1;ratioP1;P1;durP2;ratioP2;P2;SDS_P1;SDS_P2;PMS_P1;PMS_P2;Temp;Humidity;BMP_temperature;BMP_pressure;BME280_temperature;BME280_humidity;BME280_pressure;Samples;Min_cycle;Max_cycle;Signal;HPM_P1;HPM_P2
2023/11/25 00:01:03;;;;;;;;;;;;;;;0.01;100.00;99196.94;5045607;28;19964;-52
2023/11/25 00:03:30;;;;;;;;;;;;;;;0.02;100.00;99196.88;5046012;28;19963;-54
2023/11/25 00:05:58;;;;;;;;;;;;;;;0.03;100.00;99198.53;5060846;28;19964;-53
2023/11/25 00:08:26;;;;;;;;;;;;;;;0.08;100.00;99206.97;5049711;28;19925;-54
2023/11/25 00:10:53;;;;;;;;;;;;;;;0.05;100.00;99207.09;5016204;28;20017;-56
2023/11/25 00:13:23;;;;;;;;;;;;;;;0.08;100.00;99209.56;5046377;28;19925;-54
2023/11/25 00:15:50;;;;;;;;;;;;;;;0.08;100.00;99217.31;5046987;28;20352;-54
2023/11/25 00:18:17;;;;;;;;;;;;;;;0.07;100.00;99218.22;5044401;28;19992;-61
2023/11/25 00:20:46;;;;;;;;;;;;;;;0.04;100.00;99215.75;5040830;28;20013;-51
2023/11/25 00:23:14;;;;;;;;;;;;;;;0.06;100.00;99221.72;5046944;28;20001;-50
2023/11/25 00:25:41;;;;;;;;;;;;;;;0.05;100.00;99224.38;5045891;28;20396;-51
2023/11/25 00:28:10;;;;;;;;;;;;;;;0.04;100.00;99233.00;5041549;28;19945;-53
2023/11/25 00:30:37;;;;;;;;;;;;;;;0.01;100.00;99249.50;5045633;28;19971;-56
2023/11/25 00:33:04;;;;;;;;;;;;;;;0.02;100.00;99252.94;5041572;28;20013;-54
2023/11/25 00:35:31;;;;;;;;;;;;;;;0.03;100.00;99250.28;5042333;28;20354;-56
2023/11/25 00:37:58;;;;;;;;;;;;;;;0.02;100.00;99258.97;5040374;28;20002;-53
2023/11/25 00:40:25;;;;;;;;;;;;;;;0.01;100.00;99256.44;5044025;28;20385;-54
2023/11/25 00:42:53;;;;;;;;;;;;;;;0.00;100.00;99258.19;5043275;28;19929;-54
2023/11/25 00:45:24;;;;;;;;;;;;;;;-0.01;100.00;99272.00;5044709;28;20434;-58
2023/11/25 00:47:52;;;;;;;;;;;;;;;-0.04;100.00;99265.22;5041496;28;20425;-56
2023/11/25 00:50:20;;;;;;;;;;;;;;;0.01;100.00;99274.53;5044022;28;20048;-55
2023/11/25 00:52:47;;;;;;;;;;;;;;;-0.01;100.00;99284.94;5044539;28;20316;-53
2023/11/25 00:55:14;;;;;;;;;;;;;;;-0.04;100.00;99292.81;5046229;28;20012;-52
2023/11/25 00:57:41;;;;;;;;;;;;;;;-0.01;100.00;99282.34;5040503;28;19933;-58
2023/11/25 01:00:13;;;;;;;;;;;;;;;-0.02;100.00;99291.00;5042207;28;20008;-52
2023/11/25 01:02:40;;;;;;;;;;;;;;;-0.04;100.00;99283.31;5048582;28;20367;-58
2023/11/25 01:05:07;;;;;;;;;;;;;;;-0.05;100.00;99286.78;5049980;28;19925;-52
2023/11/25 01:07:34;;;;;;;;;;;;;;;-0.02;100.00;99293.59;5044061;28;20595;-54
2023/11/25 01:10:01;;;;;;;;;;;;;;;0.01;100.00;99305.59;5042288;28;19971;-48
2023/11/25 01:12:28;;;;;;;;;;;;;;;-0.02;100.00;99298.78;5048041;28;19969;-53
2023/11/25 01:14:55;;;;;;;;;;;;;;;-0.05;100.00;99306.63;5048762;28;20023;-52
2023/11/25 01:17:24;;;;;;;;;;;;;;;-0.09;100.00;99303.34;5039698;28;19928;-53
2023/11/25 01:19:52;;;;;;;;;;;;;;;-0.08;100.00;99307.63;5045572;28;20044;-54
2023/11/25 01:22:19;;;;;;;;;;;;;;;-0.05;100.00;99319.56;5049170;28;20027;-59
2023/11/25 01:24:47;;;;;;;;;;;;;;;-0.05;100.00;99320.41;5052910;28;19928;-48
2023/11/25 01:27:14;;;;;;;;;;;;;;;-0.06;100.00;99321.31;5044516;28;19925;-55
2023/11/25 01:29:41;;;;;;;;;;;;;;;-0.05;100.00;99317.00;5045640;28;19980;-56
2023/11/25 01:32:09;;;;;;;;;;;;;;;-0.02;100.00;99316.88;5048588;28;20012;-53
2023/11/25 01:34:36;;;;;;;;;;;;;;;0.03;100.00;99319.31;5041035;28;19964;-54
2023/11/25 01:37:03;;;;;;;;;;;;;;;0.02;100.00;99330.56;5046038;28;20329;-54
2023/11/25 01:39:30;;;;;;;;;;;;;;;0.10;100.00;99331.97;5047624;28;20410;-58
2023/11/25 01:41:57;;;;;;;;;;;;;;;0.17;100.00;99333.41;5045980;28;20602;-53
2023/11/25 01:44:24;;;;;;;;;;;;;;;0.19;100.00;99338.56;5048859;28;19978;-56
2023/11/25 01:46:51;;;;;;;;;;;;;;;0.16;100.00;99342.09;5048500;28;20007;-56
2023/11/25 01:49:20;;;;;;;;;;;;;;;0.18;100.00;99345.47;5044371;28;20010;-52
2023/11/25 01:51:47;;;;;;;;;;;;;;;0.24;100.00;99344.41;5047276;28;20019;-54
2023/11/25 01:54:14;;;;;;;;;;;;;;;0.31;100.00;99342.41;5050211;28;19924;-51
2023/11/25 01:56:42;;;;;;;;;;;;;;;0.31;100.00;99339.81;5046382;28;20008;-54
2023/11/25 01:59:11;;;;;;;;;;;;;;;0.29;100.00;99331.28;5046529;28;20312;-57
2023/11/25 02:01:38;;;;;;;;;;;;;;;0.33;100.00;99346.63;5040236;28;19993;-54
2023/11/25 02:04:05;;;;;;;;;;;;;;;0.36;100.00;99353.44;5044145;28;20460;-54
2023/11/25 02:06:33;;;;;;;;;;;;;;;0.36;100.00;99351.72;5049887;28;20019;-55
2023/11/25 02:09:03;;;;;;;;;;;;;;;0.32;100.00;99350.13;5049957;28;20310;-54
2023/11/25 02:11:30;;;;;;;;;;;;;;;0.34;100.00;99355.25;5050412;28;19937;-55
2023/11/25 02:13:57;;;;;;;;;;;;;;;0.36;100.00;99348.25;5048958;28;20375;-53
2023/11/25 02:16:24;;;;;;;;;;;;;;;0.27;100.00;99359.81;5052008;28;19964;-54
2023/11/25 02:18:51;;;;;;;;;;;;;;;0.33;100.00;99359.59;5032050;28;20016;-52
2023/11/25 02:21:19;;;;;;;;;;;;;;;0.32;100.00;99357.06;5049127;28;19968;-55
2023/11/25 02:23:47;;;;;;;;;;;;;;;0.38;100.00;99360.25;5048271;28;19986;-51
2023/11/25 02:26:14;;;;;;;;;;;;;;;0.43;100.00;99362.66;5047985;28;20036;-54
2023/11/25 02:28:41;;;;;;;;;;;;;;;0.44;100.00;99367.78;5050998;28;19930;-56
2023/11/25 02:31:08;;;;;;;;;;;;;;;0.47;100.00;99365.06;5047183;28;19945;-53
2023/11/25 02:33:35;;;;;;;;;;;;;;;0.39;100.00;99364.50;5044735;28;19972;-56
2023/11/25 02:36:02;;;;;;;;;;;;;;;0.46;100.00;99357.38;5049821;28;19933;-53
2023/11/25 02:38:30;;;;;;;;;;;;;;;0.44;100.00;99372.94;5047021;28;20023;-57
2023/11/25 02:40:57;;;;;;;;;;;;;;;0.43;100.00;99366.09;5051448;28;20455;-55
2023/11/25 02:43:24;;;;;;;;;;;;;;;0.31;100.00;99363.13;5050454;28;20354;-50
2023/11/25 02:45:52;;;;;;;;;;;;;;;0.34;100.00;99365.59;5042605;28;19965;-53
2023/11/25 02:48:19;;;;;;;;;;;;;;;0.33;100.00;99377.69;5053401;28;19928;-54
2023/11/25 02:50:47;;;;;;;;;;;;;;;0.31;100.00;99376.91;5045627;28;19933;-53
2023/11/25 02:53:14;;;;;;;;;;;;;;;0.35;100.00;99388.00;5047247;28;20365;-51
2023/11/25 02:55:43;;;;;;;;;;;;;;;0.27;100.00;99390.00;5026801;28;20012;-54
2023/11/25 02:58:11;;;;;;;;;;;;;;;0.25;100.00;99406.44;5043366;28;20038;-55
2023/11/25 03:00:43;;;;;;;;;;;;;;;0.24;100.00;99401.34;5032513;28;20020;-54
2023/11/25 03:03:16;;;;;;;;;;;;;;;0.29;100.00;99396.81;5056847;28;19928;-54
2023/11/25 03:05:47;;;;;;;;;;;;;;;0.17;100.00;99390.34;5046533;28;20013;-55
2023/11/25 03:08:16;;;;;;;;;;;;;;;0.20;100.00;99394.56;5047743;28;19956;-55
2023/11/25 03:10:46;;;;;;;;;;;;;;;0.22;100.00;99403.97;5060803;28;20016;-51
2023/11/25 03:13:13;;;;;;;;;;;;;;;0.25;100.00;99408.19;5059160;28;20016;-59
2023/11/25 03:15:40;;;;;;;;;;;;;;;0.25;100.00;99416.78;5050217;28;20561;-52
2023/11/25 03:18:08;;;;;;;;;;;;;;;0.20;100.00;99415.28;5054469;28;20401;-53
2023/11/25 03:20:35;;;;;;;;;;;;;;;0.19;100.00;99422.19;5048979;28;20023;-52
2023/11/25 03:23:03;;;;;;;;;;;;;;;0.17;100.00;99417.97;5050304;28;19983;-54
2023/11/25 03:25:30;;;;;;;;;;;;;;;0.17;100.00;99417.97;5053048;28;19987;-53
2023/11/25 03:27:58;;;;;;;;;;;;;;;0.13;100.00;99413.78;5052895;28;19964;-54
2023/11/25 03:30:26;;;;;;;;;;;;;;;0.22;100.00;99423.81;5048204;28;19980;-53
2023/11/25 03:32:53;;;;;;;;;;;;;;;0.23;100.00;99425.53;5045941;28;20344;-54
2023/11/25 03:35:21;;;;;;;;;;;;;;;0.17;100.00;99436.94;5050051;28;20004;-52
2023/11/25 03:37:48;;;;;;;;;;;;;;;0.23;100.00;99430.72;5048327;28;19933;-53
2023/11/25 03:40:15;;;;;;;;;;;;;;;0.22;100.00;99437.59;5050083;28;19967;-56
2023/11/25 03:42:43;;;;;;;;;;;;;;;0.30;100.00;99441.66;5040597;28;20300;-51
2023/11/25 03:45:13;;;;;;;;;;;;;;;0.28;100.00;99446.06;5052121;28;19983;-50
2023/11/25 03:47:41;;;;;;;;;;;;;;;0.31;100.00;99444.19;5047157;28;20024;-56
2023/11/25 03:50:08;;;;;;;;;;;;;;;0.31;100.00;99445.94;5059650;28;19925;-52
2023/11/25 03:52:35;;;;;;;;;;;;;;;0.36;100.00;99457.84;5053745;28;19972;-54
2023/11/25 03:55:03;;;;;;;;;;;;;;;0.38;100.00;99461.22;5048603;28;20011;-50
2023/11/25 03:57:30;;;;;;;;;;;;;;;0.41;100.00;99461.13;5055016;28;20015;-52
2023/11/25 03:59:57;;;;;;;;;;;;;;;0.45;100.00;99462.69;5047985;28;20012;-53
2023/11/25 04:02:24;;;;;;;;;;;;;;;0.46;100.00;99469.56;5044474;28;20003;-51
2023/11/25 04:04:51;;;;;;;;;;;;;;;0.41;100.00;99471.47;5054126;28;20421;-55
2023/11/25 04:07:18;;;;;;;;;;;;;;;0.45;100.00;99474.75;5052712;28;20446;-55
2023/11/25 04:09:46;;;;;;;;;;;;;;;0.39;100.00;99473.25;5050967;28;19964;-52
2023/11/25 04:12:12;;;;;;;;;;;;;;;0.38;100.00;99476.75;5049129;28;19925;-51
2023/11/25 04:14:40;;;;;;;;;;;;;;;0.47;100.00;99470.41;5046079;28;20505;-53
2023/11/25 04:17:07;;;;;;;;;;;;;;;0.43;100.00;99480.00;5049812;28;19964;-56
2023/11/25 04:19:38;;;;;;;;;;;;;;;0.42;100.00;99480.06;5046502;28;19970;-54
2023/11/25 04:22:05;;;;;;;;;;;;;;;0.47;100.00;99478.16;5049555;28;19964;-52
2023/11/25 04:24:32;;;;;;;;;;;;;;;0.48;100.00;99490.19;5048398;28;20020;-52
2023/11/25 04:27:01;;;;;;;;;;;;;;;0.55;100.00;99480.47;5055995;28;19925;-53
2023/11/25 04:29:28;;;;;;;;;;;;;;;0.40;100.00;99490.47;5051421;28;20019;-51
2023/11/25 04:31:55;;;;;;;;;;;;;;;0.45;100.00;99490.31;5046237;28;19968;-56
2023/11/25 04:34:22;;;;;;;;;;;;;;;0.49;100.00;99491.88;5045918;28;19964;-53
2023/11/25 04:36:50;;;;;;;;;;;;;;;0.54;100.00;99481.34;5049031;28;19925;-53
2023/11/25 04:39:17;;;;;;;;;;;;;;;0.55;100.00;99494.28;5050111;28;19966;-56
2023/11/25 04:41:45;;;;;;;;;;;;;;;0.54;100.00;99496.91;5050817;28;19963;-56
2023/11/25 04:44:12;;;;;;;;;;;;;;;0.54;100.00;99486.53;5052343;28;20040;-57
2023/11/25 04:46:40;;;;;;;;;;;;;;;0.56;100.00;99495.13;5048338;28;20021;-56
2023/11/25 04:49:07;;;;;;;;;;;;;;;0.52;100.00;99490.94;5051116;28;19967;-54
2023/11/25 04:51:34;;;;;;;;;;;;;;;0.56;100.00;99495.13;5042382;28;19960;-54
2023/11/25 04:54:01;;;;;;;;;;;;;;;0.56;100.00;99495.13;5046981;28;20024;-55
2023/11/25 04:56:28;;;;;;;;;;;;;;;0.60;100.00;99499.28;5053665;28;19924;-54
2023/11/25 04:58:56;;;;;;;;;;;;;;;0.50;100.00;99502.22;5044059;28;20008;-58
2023/11/25 05:01:25;;;;;;;;;;;;;;;0.56;100.00;99500.28;5047400;28;19968;-54
2023/11/25 05:03:52;;;;;;;;;;;;;;;0.52;100.00;99496.13;5047608;28;20012;-52
2023/11/25 05:06:19;;;;;;;;;;;;;;;0.44;100.00;99493.78;5051690;28;19974;-52
2023/11/25 05:08:46;;;;;;;;;;;;;;;0.47;100.00;99502.31;5054604;28;19931;-56
2023/11/25 05:11:13;;;;;;;;;;;;;;;0.48;100.00;99513.50;5055733;28;20015;-55
2023/11/25 05:13:40;;;;;;;;;;;;;;;0.45;100.00;99513.59;5052264;28;19952;-51
2023/11/25 05:16:08;;;;;;;;;;;;;;;0.34;100.00;99524.34;5045526;28;19967;-58
2023/11/25 05:18:35;;;;;;;;;;;;;;;0.37;100.00;99524.25;5049962;28;20029;-53
2023/11/25 05:21:03;;;;;;;;;;;;;;;0.39;100.00;99526.78;5039829;28;19933;-53
2023/11/25 05:23:30;;;;;;;;;;;;;;;0.35;100.00;99531.22;5045327;28;20721;-57
2023/11/25 05:25:57;;;;;;;;;;;;;;;0.40;100.00;99525.88;5044229;28;20462;-57
2023/11/25 05:28:24;;;;;;;;;;;;;;;0.31;100.00;99532.22;5042265;28;20259;-57
2023/11/25 05:30:51;;;;;;;;;;;;;;;0.31;100.00;99536.53;5047078;28;20340;-52
2023/11/25 05:33:18;;;;;;;;;;;;;;;0.30;100.00;99537.44;5040831;28;20422;-52
2023/11/25 05:35:45;;;;;;;;;;;;;;;0.27;100.00;99543.59;5042717;28;19984;-52
2023/11/25 05:38:12;;;;;;;;;;;;;;;0.24;100.00;99548.88;5038286;28;19987;-53
2023/11/25 05:40:39;;;;;;;;;;;;;;;0.28;100.00;99547.88;5050390;28;20004;-53
2023/11/25 05:43:06;;;;;;;;;;;;;;;0.29;100.00;99541.78;5046141;28;20383;-52
2023/11/25 05:45:37;;;;;;;;;;;;;;;0.25;100.00;99543.63;5045778;28;19983;-55
2023/11/25 05:48:04;;;;;;;;;;;;;;;0.27;100.00;99559.13;5049337;28;20019;-50
2023/11/25 05:50:31;;;;;;;;;;;;;;;0.29;100.00;99551.28;5051125;28;20294;-53
2023/11/25 05:52:58;;;;;;;;;;;;;;;0.24;100.00;99557.47;5045312;28;19925;-53
2023/11/25 05:55:26;;;;;;;;;;;;;;;0.25;100.00;99563.50;5050206;28;20007;-56
2023/11/25 05:57:53;;;;;;;;;;;;;;;0.18;100.00;99578.41;5042944;28;19929;-55
2023/11/25 06:00:22;;;;;;;;;;;;;;;0.23;100.00;99571.31;5050257;28;20015;-53
2023/11/25 06:02:51;;;;;;;;;;;;;;;0.16;100.00;99575.00;5046225;28;21003;-56
2023/11/25 06:05:18;;;;;;;;;;;;;;;0.12;100.00;99557.03;5043841;28;20017;-55
2023/11/25 06:07:45;;;;;;;;;;;;;;;0.05;100.00;99560.75;5049234;28;19971;-52
2023/11/25 06:10:13;;;;;;;;;;;;;;;0.06;100.00;99568.44;5055752;28;19975;-53
2023/11/25 06:12:40;;;;;;;;;;;;;;;0.02;100.00;99566.00;5048912;28;20331;-54
2023/11/25 06:15:09;;;;;;;;;;;;;;;-0.02;100.00;99575.59;5040735;28;19975;-53
2023/11/25 06:17:36;;;;;;;;;;;;;;;0.00;100.00;99579.00;5052980;28;19964;-53
2023/11/25 06:20:04;;;;;;;;;;;;;;;-0.05;100.00;99575.69;5050278;28;19925;-55
2023/11/25 06:22:31;;;;;;;;;;;;;;;-0.02;100.00;99575.59;5047697;28;19970;-53
2023/11/25 06:25:00;;;;;;;;;;;;;;;-0.07;100.00;99582.66;5045998;28;20429;-51
2023/11/25 06:27:27;;;;;;;;;;;;;;;-0.03;100.00;99582.53;5056625;28;19928;-50
2023/11/25 06:29:54;;;;;;;;;;;;;;;-0.11;100.00;99579.31;5046540;28;19972;-56
2023/11/25 06:32:22;;;;;;;;;;;;;;;-0.10;100.00;99586.19;5046560;28;19970;-52
2023/11/25 06:34:50;;;;;;;;;;;;;;;-0.08;100.00;99578.41;5050032;28;20463;-56
2023/11/25 06:37:18;;;;;;;;;;;;;;;-0.07;100.00;99586.09;5056101;28;20545;-53
2023/11/25 06:39:45;;;;;;;;;;;;;;;-0.10;100.00;99580.16;5050958;28;20481;-52
2023/11/25 06:42:12;;;;;;;;;;;;;;;-0.10;100.00;99588.78;5052997;28;20012;-53
2023/11/25 06:44:39;;;;;;;;;;;;;;;-0.08;100.00;99589.59;5052687;28;19929;-51
2023/11/25 06:47:06;;;;;;;;;;;;;;;-0.09;100.00;99590.50;5046695;28;20385;-55
2023/11/25 06:49:35;;;;;;;;;;;;;;;-0.06;100.00;99592.13;5047433;28;19925;-57
2023/11/25 06:52:03;;;;;;;;;;;;;;;-0.08;100.00;99587.00;5042699;28;20039;-52
2023/11/25 06:54:31;;;;;;;;;;;;;;;-0.05;100.00;99586.03;5049922;28;19962;-54
2023/11/25 06:56:58;;;;;;;;;;;;;;;-0.08;100.00;99593.91;5042286;28;20007;-52
2023/11/25 06:59:26;;;;;;;;;;;;;;;-0.08;100.00;99591.34;5051553;28;19939;-57
2023/11/25 07:01:54;;;;;;;;;;;;;;;-0.07;100.00;99588.69;5051220;28;20019;-55
2023/11/25 07:04:21;;;;;;;;;;;;;;;-0.01;100.00;99598.81;5054085;28;20015;-56
2023/11/25 07:06:49;;;;;;;;;;;;;;;-0.10;100.00;99604.28;5047027;28;19939;-57
2023/11/25 07:09:18;;;;;;;;;;;;;;;-0.04;100.00;99598.94;5054824;28;20162;-51
2023/11/25 07:11:48;;;;;;;;;;;;;;;0.03;100.00;99593.56;5045896;28;19968;-54
2023/11/25 07:14:15;;;;;;;;;;;;;;;-0.03;100.00;99592.88;5054563;28;19925;-57
2023/11/25 07:16:45;;;;;;;;;;;;;;;-0.04;100.00;99601.53;5048039;28;19983;-53
2023/11/25 07:19:12;;;;;;;;;;;;;;;-0.01;100.00;99600.56;5058008;28;19971;-52
2023/11/25 07:21:39;;;;;;;;;;;;;;;0.07;100.00;99605.50;5048816;28;19931;-54
2023/11/25 07:24:08;;;;;;;;;;;;;;;0.03;100.00;99609.09;5052294;28;20027;-55
2023/11/25 07:26:42;;;;;;;;;;;;;;;-0.03;100.00;99598.03;5044681;28;19942;-56
2023/11/25 07:29:13;;;;;;;;;;;;;;;-0.06;100.00;99600.72;5053023;28;19932;-52
2023/11/25 07:31:40;;;;;;;;;;;;;;;-0.01;100.00;99600.56;5045580;28;20119;-58
2023/11/25 07:34:08;;;;;;;;;;;;;;;0.04;100.00;99603.00;5052666;28;19964;-56
2023/11/25 07:36:35;;;;;;;;;;;;;;;0.09;100.00;99607.16;5043595;28;19972;-57
2023/11/25 07:39:04;;;;;;;;;;;;;;;0.10;100.00;99589.91;5049955;28;20019;-58
2023/11/25 07:41:31;;;;;;;;;;;;;;;0.08;100.00;99595.09;5055137;28;20360;-48
2023/11/25 07:43:58;;;;;;;;;;;;;;;0.04;100.00;99601.25;5054960;28;20011;-58
2023/11/25 07:46:25;;;;;;;;;;;;;;;0.18;100.00;99596.50;5050409;28;20015;-57
2023/11/25 07:48:53;;;;;;;;;;;;;;;0.13;100.00;99597.53;5045446;28;19924;-55
2023/11/25 07:51:19;;;;;;;;;;;;;;;0.08;100.00;99602.00;5052978;28;20007;-54
2023/11/25 07:53:47;;;;;;;;;;;;;;;0.10;100.00;99608.84;5052021;28;19933;-58
2023/11/25 07:56:14;;;;;;;;;;;;;;;0.13;100.00;99608.72;5049258;28;20226;-51
2023/11/25 07:58:41;;;;;;;;;;;;;;;0.22;100.00;99607.59;5046176;28;20506;-57
2023/11/25 08:01:08;;;;;;;;;;;;;;;0.18;100.00;99611.16;5055343;28;19982;-52
2023/11/25 08:03:35;;;;;;;;;;;;;;;0.25;100.00;99604.91;5044981;28;20020;-50
2023/11/25 08:06:05;;;;;;;;;;;;;;;0.27;100.00;99612.59;5046027;28;20016;-53
2023/11/25 08:08:32;;;;;;;;;;;;;;;0.28;100.00;99609.16;5048368;28;20354;-54
2023/11/25 08:10:59;;;;;;;;;;;;;;;0.33;100.00;99613.28;5053493;28;20015;-51
2023/11/25 08:13:26;;;;;;;;;;;;;;;0.28;100.00;99620.34;5052778;28;20078;-52
2023/11/25 08:15:55;;;;;;;;;;;;;;;0.29;100.00;99614.25;5044476;28;20461;-52
2023/11/25 08:18:23;;;;;;;;;;;;;;;0.33;100.00;99615.84;5054384;28;19993;-48
2023/11/25 08:20:50;;;;;;;;;;;;;;;0.50;100.00;99613.56;5051197;28;19967;-50
2023/11/25 08:23:17;;;;;;;;;;;;;;;0.69;100.00;99621.53;5042989;28;20588;-54
2023/11/25 08:25:44;;;;;;;;;;;;;;;0.83;100.00;99613.28;5041753;28;19959;-52
2023/11/25 08:28:12;;;;;;;;;;;;;;;0.87;100.00;99614.03;5049942;28;20004;-54
2023/11/25 08:30:39;;;;;;;;;;;;;;;1.05;100.00;99610.78;5055808;28;20028;-51
2023/11/25 08:33:06;;;;;;;;;;;;;;;1.30;100.00;99612.44;5044420;28;20024;-50
2023/11/25 08:35:33;;;;;;;;;;;;;;;1.58;100.00;99607.09;5049439;28;20012;-50
2023/11/25 08:38:00;;;;;;;;;;;;;;;1.56;100.00;99621.84;5047650;28;20016;-51
2023/11/25 08:40:27;;;;;;;;;;;;;;;1.57;100.00;99623.53;5051486;28;20167;-54
2023/11/25 08:42:56;;;;;;;;;;;;;;;1.76;100.00;99614.16;5043446;28;19925;-56
2023/11/25 08:45:24;;;;;;;;;;;;;;;1.71;100.00;99621.25;5060506;28;19964;-53
2023/11/25 08:47:51;;;;;;;;;;;;;;;1.94;100.00;99620.38;5047049;28;20014;-51
2023/11/25 08:50:18;;;;;;;;;;;;;;;2.25;100.00;99627.75;5054185;28;20327;-58
2023/11/25 08:52:48;;;;;;;;;;;;;;;2.29;100.00;99624.97;5058244;28;19929;-56
2023/11/25 08:55:18;;;;;;;;;;;;;;;2.35;100.00;99621.28;5054211;28;19971;-51
2023/11/25 08:57:45;;;;;;;;;;;;;;;2.51;100.00;99621.47;5045474;28;19931;-55
2023/11/25 09:00:19;;;;;;;;;;;;;;;2.39;98.77;99630.66;5057357;28;19932;-53
2023/11/25 09:02:50;;;;;;;;;;;;;;;2.57;98.69;99626.44;5045225;28;19960;-49
2023/11/25 09:05:21;;;;;;;;;;;;;;;2.92;97.90;99637.91;5045585;28;21414;-51
2023/11/25 09:07:51;;;;;;;;;;;;;;;2.75;95.69;99628.25;5046786;28;19935;-52
2023/11/25 09:10:18;;;;;;;;;;;;;;;2.88;93.79;99622.50;5046431;28;20405;-54
2023/11/25 09:12:45;;;;;;;;;;;;;;;2.66;95.24;99636.44;5049049;28;19961;-53
2023/11/25 09:15:13;;;;;;;;;;;;;;;2.81;95.63;99634.09;5049015;28;19956;-52
2023/11/25 09:17:41;;;;;;;;;;;;;;;2.84;95.35;99632.22;5056949;28;19968;-54
2023/11/25 09:20:11;;;;;;;;;;;;;;;2.78;95.07;99635.91;5050536;28;20031;-52
2023/11/25 09:22:39;;;;;;;;;;;;;;;2.74;96.02;99623.09;5042943;28;19929;-51
2023/11/25 09:25:09;;;;;;;;;;;;;;;2.54;95.00;99623.97;5046801;28;20028;-55
2023/11/25 09:27:37;;;;;;;;;;;;;;;2.45;96.47;99630.38;5042551;28;20019;-51
2023/11/25 09:30:04;;;;;;;;;;;;;;;2.46;96.54;99636.41;5044323;28;20529;-52
2023/11/25 09:32:31;;;;;;;;;;;;;;;2.44;97.21;99627.88;5050875;28;19993;-50
2023/11/25 09:34:58;;;;;;;;;;;;;;;2.41;98.48;99622.78;5044106;28;19965;-53
2023/11/25 09:37:25;;;;;;;;;;;;;;;2.56;98.20;99629.09;5048207;28;19964;-52
2023/11/25 09:39:52;;;;;;;;;;;;;;;2.68;98.85;99623.38;5049892;28;20081;-51
2023/11/25 09:42:19;;;;;;;;;;;;;;;2.51;96.70;99632.72;5048091;28;20024;-51
2023/11/25 09:44:46;;;;;;;;;;;;;;;2.36;97.50;99625.56;5046041;28;19928;-52
2023/11/25 09:47:13;;;;;;;;;;;;;;;2.14;99.33;99616.97;5045432;28;19956;-53
2023/11/25 09:49:40;;;;;;;;;;;;;;;2.24;99.02;99615.69;5045447;28;20562;-54
2023/11/25 09:52:09;;;;;;;;;;;;;;;2.72;98.82;99610.19;5041913;28;20067;-57
2023/11/25 09:54:36;;;;;;;;;;;;;;;2.88;96.80;99614.72;5051405;28;19944;-56
2023/11/25 09:57:03;;;;;;;;;;;;;;;2.71;97.09;99602.47;5042978;28;21160;-56
2023/11/25 09:59:30;;;;;;;;;;;;;;;2.94;97.40;99596.28;5050850;28;19959;-57
2023/11/25 10:01:58;;;;;;;;;;;;;;;2.98;96.16;99585.66;5040435;28;20135;-53
2023/11/25 10:04:26;;;;;;;;;;;;;;;3.10;96.58;99591.22;5055012;28;20489;-59
2023/11/25 10:06:54;;;;;;;;;;;;;;;3.05;96.94;99584.47;5049253;28;20011;-56
2023/11/25 10:09:21;;;;;;;;;;;;;;;3.29;97.36;99594.69;5052595;28;20126;-55
2023/11/25 10:11:48;;;;;;;;;;;;;;;3.24;96.37;99588.84;5053045;28;20469;-54
2023/11/25 10:14:17;;;;;;;;;;;;;;;3.53;96.42;99585.75;5065678;28;19960;-53
2023/11/25 10:16:45;;;;;;;;;;;;;;;3.85;95.20;99590.34;5055924;28;19972;-54
2023/11/25 10:19:23;;;;;;;;;;;;;;;3.54;95.19;99591.78;5054734;28;20014;-55
2023/11/25 10:21:50;;;;;;;;;;;;;;;3.34;96.51;99581.47;5049433;28;20023;-58
2023/11/25 10:24:20;;;;;;;;;;;;;;;3.37;97.62;99578.72;5053401;28;20040;-48
2023/11/25 10:26:49;;;;;;;;;;;;;;;3.34;98.11;99578.88;5047911;28;20402;-52
2023/11/25 10:29:19;;;;;;;;;;;;;;;3.21;97.57;99579.44;5049816;28;19960;-54
2023/11/25 10:31:52;;;;;;;;;;;;;;;3.30;98.07;99578.16;5047940;28;20023;-57
2023/11/25 10:34:21;;;;;;;;;;;;;;;3.08;99.61;99573.09;5048164;28;19936;-52
2023/11/25 10:36:49;;;;;;;;;;;;;;;3.13;99.95;99573.72;5057159;28;20301;-57
2023/11/25 10:39:17;;;;;;;;;;;;;;;3.25;98.70;99573.19;5048590;28;20006;-52
2023/11/25 10:41:48;;;;;;;;;;;;;;;3.22;99.30;99570.72;5043911;28;19956;-55
2023/11/25 10:44:16;;;;;;;;;;;;;;;3.20;99.96;99567.34;5039043;28;20009;-56
2023/11/25 10:46:44;;;;;;;;;;;;;;;3.20;100.00;99569.09;5046932;28;20455;-55
2023/11/25 10:49:11;;;;;;;;;;;;;;;3.00;100.00;99565.63;5044272;28;20503;-57
2023/11/25 10:51:39;;;;;;;;;;;;;;;2.91;100.00;99558.25;5045808;28;20039;-55
2023/11/25 10:54:07;;;;;;;;;;;;;;;2.88;100.00;99568.78;5047440;28;20012;-56
2023/11/25 10:56:35;;;;;;;;;;;;;;;2.88;100.00;99571.41;5043773;28;19928;-52
2023/11/25 10:59:02;;;;;;;;;;;;;;;2.89;100.00;99567.03;5041965;28;20000;-54
2023/11/25 11:01:30;;;;;;;;;;;;;;;2.85;100.00;99558.53;5045414;28;20275;-57
2023/11/25 11:03:58;;;;;;;;;;;;;;;2.89;100.00;99560.06;5045461;28;19975;-55
2023/11/25 11:06:29;;;;;;;;;;;;;;;2.89;100.00;99562.69;5042698;28;19972;-55
2023/11/25 11:08:56;;;;;;;;;;;;;;;2.69;100.00;99554.91;5044489;28;20407;-54
2023/11/25 11:11:25;;;;;;;;;;;;;;;2.82;100.00;99553.44;5046836;28;19983;-54
2023/11/25 11:14:07;;;;;;;;;;;;;;;2.59;100.00;99548.44;5048615;28;19925;-55
2023/11/25 11:16:37;;;;;;;;;;;;;;;2.70;100.00;99554.84;5044714;28;20337;-56
2023/11/25 11:19:05;;;;;;;;;;;;;;;2.64;100.00;99555.09;5043707;28;19971;-51
2023/11/25 11:21:34;;;;;;;;;;;;;;;2.70;100.00;99564.38;5046251;28;19971;-54
2023/11/25 11:24:01;;;;;;;;;;;;;;;2.63;100.00;99571.59;5047947;28;19925;-54
2023/11/25 11:26:31;;;;;;;;;;;;;;;2.67;100.00;99564.53;5049750;28;20024;-51
2023/11/25 11:29:01;;;;;;;;;;;;;;;2.71;100.00;99558.28;5053720;28;20011;-56
2023/11/25 11:31:41;;;;;;;;;;;;;;;2.70;100.00;99557.44;5051306;28;20403;-56
2023/11/25 11:34:08;;;;;;;;;;;;;;;2.77;100.00;99563.22;5048328;28;20075;-57
2023/11/25 11:36:35;;;;;;;;;;;;;;;2.81;100.00;99558.72;5051569;28;19940;-52
2023/11/25 11:39:02;;;;;;;;;;;;;;;2.89;100.00;99559.25;5051555;28;19979;-49
2023/11/25 11:41:29;;;;;;;;;;;;;;;2.89;100.00;99565.28;5046448;28;20019;-56
2023/11/25 11:44:00;;;;;;;;;;;;;;;2.68;100.00;99558.41;5048288;28;19964;-53
2023/11/25 11:46:27;;;;;;;;;;;;;;;2.58;100.00;99559.72;5044377;28;20344;-51
2023/11/25 11:48:54;;;;;;;;;;;;;;;2.63;100.00;99558.63;5047215;28;20374;-55
2023/11/25 11:51:22;;;;;;;;;;;;;;;2.64;100.00;99549.91;5045431;28;19968;-54
2023/11/25 11:54:10;;;;;;;;;;;;;;;2.56;100.00;99548.53;5049137;28;20007;-55
2023/11/25 11:56:55;;;;;;;;;;;;;;;2.48;100.00;99541.94;5039658;28;19965;-56
2023/11/25 11:59:22;;;;;;;;;;;;;;;2.19;100.00;99539.72;5039830;28;20492;-54
2023/11/25 12:01:49;;;;;;;;;;;;;;;2.12;100.00;99533.13;5044490;28;21102;-56
2023/11/25 12:04:16;;;;;;;;;;;;;;;2.27;100.00;99530.72;5041265;28;19956;-56
2023/11/25 12:06:44;;;;;;;;;;;;;;;2.35;100.00;99525.19;5039315;28;19924;-51
2023/11/25 12:09:13;;;;;;;;;;;;;;;2.37;100.00;99523.38;5048809;28;20390;-53
2023/11/25 12:11:43;;;;;;;;;;;;;;;2.44;100.00;99527.41;5047987;28;19928;-51
2023/11/25 12:14:10;;;;;;;;;;;;;;;2.40;100.00;99533.63;5042151;28;20015;-55
2023/11/25 12:16:37;;;;;;;;;;;;;;;2.39;100.00;99534.56;5044804;28;20030;-54
2023/11/25 12:19:04;;;;;;;;;;;;;;;2.29;100.00;99538.44;5056046;28;20023;-57
2023/11/25 12:21:32;;;;;;;;;;;;;;;2.35;100.00;99534.75;5053143;28;20461;-56
2023/11/25 12:23:59;;;;;;;;;;;;;;;2.23;100.00;99536.09;5040343;28;20024;-56
2023/11/25 12:26:26;;;;;;;;;;;;;;;2.27;100.00;99537.66;5043587;28;20672;-56
2023/11/25 12:28:53;;;;;;;;;;;;;;;2.24;100.00;99536.03;5051252;28;19925;-55
2023/11/25 12:31:20;;;;;;;;;;;;;;;2.31;100.00;99534.03;5054040;28;20021;-56
2023/11/25 12:33:48;;;;;;;;;;;;;;;2.34;100.00;99526.09;5057842;28;19925;-57
2023/11/25 12:36:16;;;;;;;;;;;;;;;2.32;100.00;99542.66;5050883;28;19925;-57
2023/11/25 12:38:43;;;;;;;;;;;;;;;2.08;100.00;99534.16;5038804;28;19958;-51
2023/11/25 12:41:12;;;;;;;;;;;;;;;1.98;100.00;99539.72;5045112;28;19975;-53
2023/11/25 12:43:58;;;;;;;;;;;;;;;1.99;100.00;99535.38;5042705;28;19971;-54
2023/11/25 12:46:25;;;;;;;;;;;;;;;2.01;100.00;99539.59;5053994;28;20533;-55
2023/11/25 12:48:52;;;;;;;;;;;;;;;2.09;100.00;99535.84;5044745;28;20004;-54